Saint-Antoine-Des-Laurentides, Canada
Current Conditions -  °F | °C
As of 7:00 AM on Monday 22 Dec 2014 (Local Time) from CYMX Reporting Station
Light Snow Light Snow  
Wind Chill:   Ceiling: 800
Heat Index: 16°   Visibility: 10mi
Dew Point: 12°   Wind: 6mph
Humidity: 86%   Direction: 60°ENE
Pressure: 30.42"   Gusts: NA
Location:  45.77°N, 73.98°W
Report Text: CYMX 221200Z 06005KT 10SM -SN OVC008 M09/M11 A3042 RMK ST8 SLP308
Loading
Personal Weather Stations






























Interactive Weather Map New forecast layout! Learn more

10-Day Weather Forecast

Advertisements
Track Severe Weather on mobile